Main page
METAR-TAF:

METAR-TAF

Airports :

Jasper County Airport (Bell Field)

Jasper, Texas, United States

latitude: 30-53-08N, longitude: 094-02-05W, elevation: 213 ft

Current weather observation

The report was made 27 minutes ago, at 12:35 UTC
Wind 8 mph from the East, varying between Northeast and East/Southeast
Temperature 77°F
Humidity 100%
Pressure 30.08 in. Hg
Visibility: 9 miles
Few clouds at a height of 1500 ft
Scattered clouds at a height of 2000 ft

METAR: KJAS 201235Z AUTO 09007KT 050V120 9SM FEW015 SCT020 25/25 A3008 RMK AO2

Time: 08:02 (13:02 UTC)


TAF: missing

Weather observations and forecasts of more than 4000 airports (METAR and TAF reports).

The available stations are represented by yellow and red dots on the map.

Hover mouse over dot to see the name of the station.

Then click to see weather observations and forecasts.

To change the map : click on the green buttons with a black cross to zoom in, on the green button with a dash to zoom out, or on the green arrows for adjacent maps.


METAR-TAF: